DAL311 KLAX-PHKO
Flight info
| Callsign | DAL311 |
|---|---|
| Flight time | N/A |
| Altitude | 28000 |
| Route | SUMMR2 FICKY R578 FLITY/N0459F300 R578 FOMAS/N0454F320 R578 FITES OKALA VECKI9 |
| Aircraft | A21N/M-SDE3FGHIRWY/LB1 |
Departure
| Time | 2026-04-25 17:57 |
|---|---|
| Airport | Los Angeles International Airport (KLAX) |
Arrival
| Time | N/A |
|---|---|
| Airport | Ellison Onizuka Kona International Airport at Keāhole (PHKO) |
| Time | Latitude | Longitude | Altitude | Speed | Heading |
|---|---|---|---|---|---|
| 2026-04-25 17:39 | 33.94583 | -118.40481 | 120 ft | 0 kts | 93° |
| 2026-04-25 17:49 | 33.94583 | -118.40487 | 120 ft | 2 kts | 93° |
| 2026-04-25 17:50 | 33.94584 | -118.40505 | 120 ft | 2 kts | 93° |
| 2026-04-25 17:50 | 33.94584 | -118.40517 | 120 ft | 1 kts | 93° |
| 2026-04-25 17:50 | 33.94584 | -118.40534 | 120 ft | 2 kts | 82° |
| 2026-04-25 17:50 | 33.94581 | -118.40552 | 120 ft | 2 kts | 74° |
| 2026-04-25 17:51 | 33.94576 | -118.40569 | 120 ft | 2 kts | 63° |
| 2026-04-25 17:51 | 33.94572 | -118.40578 | 120 ft | 1 kts | 58° |
| 2026-04-25 17:51 | 33.94570 | -118.40582 | 120 ft | 0 kts | 57° |
| 2026-04-25 17:53 | 33.94594 | -118.40560 | 120 ft | 4 kts | 15° |
| 2026-04-25 17:53 | 33.94627 | -118.40564 | 120 ft | 5 kts | 352° |
| 2026-04-25 17:54 | 33.94665 | -118.40571 | 120 ft | 5 kts | 352° |
| 2026-04-25 17:54 | 33.94723 | -118.40582 | 120 ft | 13 kts | 352° |
| 2026-04-25 17:54 | 33.94818 | -118.40599 | 120 ft | 13 kts | 354° |
| 2026-04-25 17:54 | 33.94874 | -118.40526 | 120 ft | 13 kts | 73° |
| 2026-04-25 17:55 | 33.94889 | -118.40376 | 118 ft | 22 kts | 85° |
| 2026-04-25 17:55 | 33.94906 | -118.40189 | 117 ft | 21 kts | 83° |
| 2026-04-25 17:55 | 33.94923 | -118.40018 | 114 ft | 15 kts | 81° |
| 2026-04-25 17:55 | 33.94971 | -118.39919 | 113 ft | 13 kts | 13° |
| 2026-04-25 17:56 | 33.95036 | -118.39970 | 113 ft | 12 kts | 271° |
| 2026-04-25 17:56 | 33.95021 | -118.40148 | 116 ft | 49 kts | 263° |
| 2026-04-25 17:56 | 33.94948 | -118.40854 | 124 ft | 117 kts | 264° |
| 2026-04-25 17:56 | 33.94831 | -118.42035 | 160 ft | 163 kts | 263° |
| 2026-04-25 17:57 | 33.94690 | -118.43421 | 598 ft | 170 kts | 262° |
| 2026-04-25 17:57 | 33.94564 | -118.44852 | 1106 ft | 178 kts | 263° |
| 2026-04-25 17:57 | 33.94444 | -118.46357 | 1656 ft | 179 kts | 263° |
| 2026-04-25 17:57 | 33.94412 | -118.46864 | 1820 ft | 181 kts | 264° |
| 2026-04-25 17:58 | 33.94287 | -118.49587 | 2361 ft | 207 kts | 266° |
| 2026-04-25 17:58 | 33.94189 | -118.51395 | 2654 ft | 226 kts | 264° |
| 2026-04-25 17:58 | 33.94034 | -118.53381 | 2957 ft | 248 kts | 264° |
| 2026-04-25 17:58 | 33.93864 | -118.55498 | 3387 ft | 264 kts | 264° |
| 2026-04-25 17:59 | 33.93686 | -118.57738 | 4065 ft | 271 kts | 264° |
| 2026-04-25 17:59 | 33.93510 | -118.59978 | 4913 ft | 270 kts | 265° |
| 2026-04-25 17:59 | 33.93333 | -118.62223 | 5770 ft | 269 kts | 265° |
| 2026-04-25 17:59 | 33.93159 | -118.64435 | 6571 ft | 268 kts | 265° |
| 2026-04-25 18:00 | 33.92989 | -118.66657 | 7318 ft | 269 kts | 264° |
| 2026-04-25 18:00 | 33.92820 | -118.68868 | 8015 ft | 271 kts | 264° |
| 2026-04-25 18:00 | 33.92672 | -118.70793 | 8630 ft | 272 kts | 264° |
| 2026-04-25 18:00 | 33.92495 | -118.73092 | 9348 ft | 273 kts | 263° |
| 2026-04-25 18:01 | 33.92319 | -118.75359 | 10064 ft | 273 kts | 263° |
| 2026-04-25 18:01 | 33.92139 | -118.77649 | 10601 ft | 280 kts | 263° |
| 2026-04-25 18:01 | 33.91948 | -118.80064 | 10896 ft | 295 kts | 263° |
| 2026-04-25 18:01 | 33.91785 | -118.82605 | 11185 ft | 311 kts | 265° |
| 2026-04-25 18:02 | 33.91762 | -118.85295 | 11469 ft | 326 kts | 269° |
| 2026-04-25 18:02 | 33.91836 | -118.88055 | 11807 ft | 337 kts | 269° |
| 2026-04-25 18:02 | 33.91922 | -118.90871 | 12410 ft | 340 kts | 269° |
| 2026-04-25 18:02 | 33.92010 | -118.93702 | 13095 ft | 340 kts | 269° |
| 2026-04-25 18:03 | 33.92096 | -118.96545 | 13755 ft | 340 kts | 268° |
| 2026-04-25 18:03 | 33.92114 | -118.99371 | 14352 ft | 340 kts | 263° |
| 2026-04-25 18:03 | 33.91762 | -119.02193 | 14905 ft | 339 kts | 254° |
| 2026-04-25 18:03 | 33.91050 | -119.04858 | 15484 ft | 339 kts | 246° |
| 2026-04-25 18:04 | 33.90120 | -119.07494 | 15997 ft | 341 kts | 245° |
| 2026-04-25 18:04 | 33.89180 | -119.10084 | 16578 ft | 342 kts | 245° |
| 2026-04-25 18:04 | 33.88218 | -119.12718 | 17132 ft | 343 kts | 245° |
| 2026-04-25 18:04 | 33.87264 | -119.15337 | 17627 ft | 345 kts | 245° |
| 2026-04-25 18:05 | 33.86293 | -119.18004 | 18093 ft | 348 kts | 245° |
| 2026-04-25 18:05 | 33.85325 | -119.20657 | 18557 ft | 351 kts | 245° |
| 2026-04-25 18:05 | 33.84351 | -119.23329 | 19023 ft | 353 kts | 245° |
| 2026-04-25 18:05 | 33.83344 | -119.26088 | 19504 ft | 355 kts | 245° |
| 2026-04-25 18:06 | 33.82354 | -119.28795 | 19954 ft | 357 kts | 245° |
| 2026-04-25 18:06 | 33.81345 | -119.31489 | 20367 ft | 359 kts | 242° |
| 2026-04-25 18:06 | 33.80018 | -119.34043 | 20794 ft | 360 kts | 233° |
| 2026-04-25 18:06 | 33.78368 | -119.36309 | 21207 ft | 363 kts | 226° |
| 2026-04-25 18:07 | 33.76454 | -119.38276 | 21605 ft | 366 kts | 221° |
| 2026-04-25 18:07 | 33.74437 | -119.40189 | 21991 ft | 369 kts | 220° |
| 2026-04-25 18:07 | 33.72409 | -119.42097 | 22338 ft | 372 kts | 220° |
| 2026-04-25 18:07 | 33.70383 | -119.43997 | 22695 ft | 374 kts | 220° |
| 2026-04-25 18:08 | 33.68300 | -119.45949 | 23094 ft | 375 kts | 220° |
| 2026-04-25 18:08 | 33.66260 | -119.47862 | 23479 ft | 377 kts | 220° |
| 2026-04-25 18:08 | 33.64197 | -119.49791 | 23847 ft | 378 kts | 220° |
| 2026-04-25 18:08 | 33.62098 | -119.51756 | 24236 ft | 379 kts | 220° |
| 2026-04-25 18:09 | 33.60035 | -119.53683 | 24603 ft | 380 kts | 220° |
| 2026-04-25 18:09 | 33.57938 | -119.55645 | 24949 ft | 381 kts | 220° |
| 2026-04-25 18:09 | 33.55837 | -119.57604 | 25282 ft | 383 kts | 220° |
| 2026-04-25 18:09 | 33.55125 | -119.58270 | 25400 ft | 383 kts | 220° |
| 2026-04-25 18:10 | 33.51600 | -119.61558 | 25961 ft | 385 kts | 221° |
| 2026-04-25 18:10 | 33.49502 | -119.63515 | 26239 ft | 386 kts | 221° |
| 2026-04-25 18:10 | 33.47365 | -119.65507 | 26541 ft | 387 kts | 220° |
| 2026-04-25 18:10 | 33.45237 | -119.67488 | 26845 ft | 388 kts | 220° |
| 2026-04-25 18:11 | 33.43102 | -119.69475 | 27139 ft | 390 kts | 220° |
| 2026-04-25 18:11 | 33.40953 | -119.71472 | 27443 ft | 390 kts | 220° |
| 2026-04-25 18:11 | 33.38814 | -119.73461 | 27722 ft | 391 kts | 220° |
| 2026-04-25 18:11 | 33.36663 | -119.75459 | 27971 ft | 393 kts | 220° |
| 2026-04-25 18:12 | 33.34500 | -119.77466 | 28211 ft | 394 kts | 220° |
| 2026-04-25 18:12 | 33.32335 | -119.79475 | 28489 ft | 394 kts | 220° |
| 2026-04-25 18:12 | 33.30176 | -119.81474 | 28874 ft | 392 kts | 220° |
| 2026-04-25 18:12 | 33.28031 | -119.83461 | 29268 ft | 389 kts | 220° |
| 2026-04-25 18:13 | 33.25907 | -119.85429 | 29643 ft | 387 kts | 220° |
| 2026-04-25 18:13 | 33.23810 | -119.87367 | 29956 ft | 385 kts | 220° |
| 2026-04-25 18:13 | 33.21687 | -119.89329 | 30240 ft | 384 kts | 220° |
| 2026-04-25 18:14 | 33.17470 | -119.93224 | 30690 ft | 384 kts | 220° |
| 2026-04-25 18:14 | 33.15358 | -119.95176 | 30889 ft | 385 kts | 220° |
| 2026-04-25 18:14 | 33.13235 | -119.97134 | 31087 ft | 385 kts | 220° |
| 2026-04-25 18:14 | 33.11132 | -119.99070 | 31263 ft | 386 kts | 220° |
| 2026-04-25 18:15 | 33.09010 | -120.01023 | 31429 ft | 386 kts | 220° |
| 2026-04-25 18:15 | 33.06876 | -120.02988 | 31594 ft | 387 kts | 220° |
| 2026-04-25 18:15 | 33.04742 | -120.04953 | 31764 ft | 387 kts | 220° |
| 2026-04-25 18:15 | 33.02632 | -120.06892 | 31929 ft | 387 kts | 221° |
| 2026-04-25 18:16 | 32.98370 | -120.10809 | 32001 ft | 388 kts | 221° |
| 2026-04-25 18:17 | 32.91947 | -120.16701 | 32011 ft | 388 kts | 220° |
| 2026-04-25 18:17 | 32.87687 | -120.20601 | 32010 ft | 388 kts | 220° |
| 2026-04-25 18:18 | 32.83433 | -120.24493 | 32009 ft | 386 kts | 220° |
| 2026-04-25 18:18 | 32.79178 | -120.28379 | 32012 ft | 386 kts | 220° |
| 2026-04-25 18:19 | 32.74926 | -120.32258 | 32009 ft | 385 kts | 221° |
| 2026-04-25 18:19 | 32.70700 | -120.36109 | 32001 ft | 385 kts | 220° |
| 2026-04-25 18:20 | 32.66460 | -120.39970 | 32001 ft | 384 kts | 220° |
| 2026-04-25 18:20 | 32.62225 | -120.43823 | 31999 ft | 384 kts | 220° |
| 2026-04-25 18:21 | 32.57980 | -120.47675 | 32001 ft | 384 kts | 220° |
| 2026-04-25 18:21 | 32.53725 | -120.51530 | 32008 ft | 384 kts | 221° |
| 2026-04-25 18:22 | 32.49509 | -120.55350 | 32013 ft | 383 kts | 221° |
| 2026-04-25 18:22 | 32.45281 | -120.59177 | 32009 ft | 383 kts | 221° |
| 2026-04-25 18:23 | 32.41024 | -120.63026 | 32004 ft | 383 kts | 220° |
| 2026-04-25 18:23 | 32.36798 | -120.66843 | 32003 ft | 382 kts | 220° |
| 2026-04-25 18:24 | 32.32586 | -120.70643 | 32006 ft | 382 kts | 220° |
| 2026-04-25 18:24 | 32.28373 | -120.74438 | 32004 ft | 382 kts | 220° |
| 2026-04-25 18:25 | 32.24138 | -120.78249 | 32008 ft | 382 kts | 220° |
| 2026-04-25 18:25 | 32.19929 | -120.82034 | 32001 ft | 381 kts | 220° |
| 2026-04-25 18:26 | 32.15704 | -120.85825 | 32005 ft | 381 kts | 220° |
| 2026-04-25 18:26 | 32.11499 | -120.89593 | 32003 ft | 381 kts | 220° |
| 2026-04-25 18:27 | 32.07283 | -120.93372 | 32005 ft | 380 kts | 220° |
| 2026-04-25 18:27 | 32.03068 | -120.97141 | 32005 ft | 380 kts | 220° |
| 2026-04-25 18:28 | 31.98869 | -121.00892 | 32006 ft | 380 kts | 220° |
| 2026-04-25 18:28 | 31.94678 | -121.04632 | 32011 ft | 380 kts | 220° |
| 2026-04-25 18:29 | 31.88348 | -121.10275 | 32013 ft | 379 kts | 220° |
| 2026-04-25 18:30 | 31.79969 | -121.17728 | 32014 ft | 378 kts | 220° |
| 2026-04-25 18:30 | 31.75792 | -121.21438 | 32016 ft | 378 kts | 220° |
| 2026-04-25 18:31 | 31.71599 | -121.25159 | 32019 ft | 377 kts | 220° |
| 2026-04-25 18:31 | 31.67411 | -121.28869 | 32016 ft | 378 kts | 220° |
| 2026-04-25 18:32 | 31.63247 | -121.32577 | 32016 ft | 376 kts | 222° |
| 2026-04-25 18:32 | 31.59559 | -121.36829 | 32022 ft | 373 kts | 231° |
| 2026-04-25 18:33 | 31.56592 | -121.41821 | 32022 ft | 373 kts | 240° |
| 2026-04-25 18:33 | 31.54462 | -121.47368 | 32022 ft | 376 kts | 248° |
| 2026-04-25 18:34 | 31.53133 | -121.53296 | 32028 ft | 378 kts | 253° |
| 2026-04-25 18:34 | 31.51974 | -121.59257 | 32026 ft | 377 kts | 253° |
| 2026-04-25 18:35 | 31.50823 | -121.65253 | 32028 ft | 378 kts | 253° |
| 2026-04-25 18:35 | 31.49672 | -121.71265 | 32033 ft | 377 kts | 253° |
| 2026-04-25 18:36 | 31.48530 | -121.77228 | 32025 ft | 377 kts | 253° |
| 2026-04-25 18:36 | 31.47384 | -121.83200 | 32022 ft | 376 kts | 253° |
| 2026-04-25 18:37 | 31.46242 | -121.89136 | 32028 ft | 376 kts | 253° |
| 2026-04-25 18:37 | 31.45095 | -121.95096 | 32028 ft | 376 kts | 253° |
| 2026-04-25 18:38 | 31.43941 | -122.01080 | 32031 ft | 377 kts | 253° |
| 2026-04-25 18:38 | 31.42786 | -122.07042 | 32030 ft | 377 kts | 253° |
| 2026-04-25 18:39 | 31.41629 | -122.12997 | 32030 ft | 376 kts | 253° |
| 2026-04-25 18:39 | 31.40475 | -122.18932 | 32029 ft | 376 kts | 253° |
| 2026-04-25 18:40 | 31.39319 | -122.24859 | 32031 ft | 377 kts | 253° |
| 2026-04-25 18:40 | 31.38151 | -122.30823 | 32030 ft | 376 kts | 253° |
| 2026-04-25 18:41 | 31.36981 | -122.36798 | 32033 ft | 376 kts | 253° |
| 2026-04-25 18:41 | 31.35814 | -122.42733 | 32037 ft | 377 kts | 253° |
| 2026-04-25 18:42 | 31.35030 | -122.46699 | 32032 ft | 377 kts | 253° |
| 2026-04-25 18:42 | 31.33457 | -122.54679 | 32037 ft | 377 kts | 253° |
| 2026-04-25 18:43 | 31.32278 | -122.60609 | 32035 ft | 377 kts | 253° |
| 2026-04-25 18:43 | 31.31094 | -122.66567 | 32041 ft | 377 kts | 253° |
| 2026-04-25 18:44 | 31.29906 | -122.72536 | 32041 ft | 377 kts | 252° |
| 2026-04-25 18:44 | 31.28720 | -122.78473 | 32038 ft | 377 kts | 253° |
| 2026-04-25 18:45 | 31.27527 | -122.84432 | 32043 ft | 377 kts | 253° |
| 2026-04-25 18:45 | 31.26338 | -122.90356 | 32039 ft | 376 kts | 252° |
| 2026-04-25 18:46 | 31.25146 | -122.96281 | 32042 ft | 376 kts | 252° |
| 2026-04-25 18:46 | 31.23952 | -123.02199 | 32045 ft | 376 kts | 253° |
| 2026-04-25 18:47 | 31.22746 | -123.08159 | 32047 ft | 376 kts | 253° |
| 2026-04-25 18:47 | 31.21545 | -123.14082 | 32048 ft | 377 kts | 252° |
| 2026-04-25 18:48 | 31.20336 | -123.20016 | 32045 ft | 376 kts | 253° |
| 2026-04-25 18:48 | 31.19131 | -123.25932 | 32048 ft | 377 kts | 253° |
| 2026-04-25 18:49 | 31.17912 | -123.31902 | 32046 ft | 377 kts | 253° |
| 2026-04-25 18:49 | 31.16697 | -123.37833 | 32049 ft | 378 kts | 253° |
| 2026-04-25 18:50 | 31.15480 | -123.43770 | 32048 ft | 378 kts | 253° |
| 2026-04-25 18:50 | 31.14254 | -123.49715 | 32051 ft | 377 kts | 253° |
| 2026-04-25 18:51 | 31.13438 | -123.53680 | 32051 ft | 378 kts | 253° |
| 2026-04-25 18:51 | 31.11733 | -123.61620 | 32050 ft | 378 kts | 253° |
| 2026-04-25 18:52 | 31.10438 | -123.67520 | 32052 ft | 378 kts | 252° |
| 2026-04-25 18:52 | 31.09144 | -123.73444 | 32051 ft | 378 kts | 252° |
| 2026-04-25 18:53 | 31.07848 | -123.79372 | 32050 ft | 377 kts | 252° |
| 2026-04-25 18:53 | 31.06550 | -123.85281 | 32051 ft | 378 kts | 252° |
| 2026-04-25 18:54 | 31.04591 | -123.94181 | 32052 ft | 377 kts | 253° |
| 2026-04-25 18:55 | 31.03292 | -124.00072 | 32052 ft | 378 kts | 253° |
| 2026-04-25 18:55 | 31.01979 | -124.06012 | 32051 ft | 379 kts | 252° |
| 2026-04-25 18:56 | 31.00666 | -124.11933 | 32053 ft | 379 kts | 252° |
| 2026-04-25 18:56 | 30.99347 | -124.17866 | 32051 ft | 378 kts | 253° |
| 2026-04-25 18:57 | 30.98025 | -124.23807 | 32052 ft | 379 kts | 253° |
| 2026-04-25 18:57 | 30.96702 | -124.29733 | 32051 ft | 380 kts | 253° |
| 2026-04-25 18:58 | 30.95376 | -124.35664 | 32051 ft | 379 kts | 253° |
| 2026-04-25 18:58 | 30.93382 | -124.44552 | 32052 ft | 380 kts | 253° |
| 2026-04-25 18:59 | 30.90709 | -124.56409 | 32051 ft | 381 kts | 253° |
| 2026-04-25 19:00 | 30.88683 | -124.65374 | 32052 ft | 381 kts | 253° |
| 2026-04-25 19:01 | 30.86659 | -124.74292 | 32054 ft | 381 kts | 253° |
| 2026-04-25 19:01 | 30.85305 | -124.80234 | 32055 ft | 382 kts | 253° |
| 2026-04-25 19:02 | 30.83272 | -124.89141 | 32053 ft | 382 kts | 253° |
| 2026-04-25 19:03 | 30.81684 | -124.96073 | 32056 ft | 381 kts | 253° |
| 2026-04-25 19:03 | 30.79864 | -125.04001 | 32058 ft | 382 kts | 253° |
| 2026-04-25 19:04 | 30.77808 | -125.12926 | 32058 ft | 381 kts | 254° |
| 2026-04-25 19:05 | 30.75067 | -125.24772 | 32063 ft | 380 kts | 254° |
| 2026-04-25 19:06 | 30.73698 | -125.30674 | 32065 ft | 380 kts | 254° |
| 2026-04-25 19:06 | 30.71637 | -125.39536 | 32072 ft | 379 kts | 254° |
| 2026-04-25 19:07 | 30.69565 | -125.48407 | 32074 ft | 379 kts | 254° |
| 2026-04-25 19:08 | 30.67496 | -125.57239 | 32073 ft | 380 kts | 254° |
| 2026-04-25 19:09 | 30.64950 | -125.68066 | 32072 ft | 379 kts | 254° |
| 2026-04-25 19:10 | 30.62637 | -125.77866 | 32071 ft | 379 kts | 254° |
| 2026-04-25 19:10 | 30.61241 | -125.83762 | 32070 ft | 379 kts | 254° |
| 2026-04-25 19:11 | 30.59842 | -125.89656 | 32071 ft | 380 kts | 254° |
| 2026-04-25 19:11 | 30.58441 | -125.95548 | 32071 ft | 379 kts | 254° |
| 2026-04-25 19:12 | 30.57037 | -126.01432 | 32070 ft | 379 kts | 255° |
| 2026-04-25 19:12 | 30.55631 | -126.07320 | 32080 ft | 379 kts | 255° |
| 2026-04-25 19:13 | 30.54222 | -126.13215 | 32071 ft | 380 kts | 255° |
| 2026-04-25 19:13 | 30.52815 | -126.19079 | 32068 ft | 379 kts | 254° |
| 2026-04-25 19:14 | 30.51402 | -126.24963 | 32077 ft | 379 kts | 255° |
| 2026-04-25 19:14 | 30.49988 | -126.30833 | 32071 ft | 379 kts | 255° |
| 2026-04-25 19:15 | 30.48575 | -126.36681 | 32073 ft | 380 kts | 255° |
| 2026-04-25 19:15 | 30.47150 | -126.42572 | 32075 ft | 380 kts | 255° |
| 2026-04-25 19:16 | 30.45726 | -126.48444 | 32074 ft | 379 kts | 255° |
| 2026-04-25 19:16 | 30.44297 | -126.54324 | 32073 ft | 379 kts | 255° |
| 2026-04-25 19:17 | 30.42873 | -126.60178 | 32074 ft | 379 kts | 255° |
| 2026-04-25 19:17 | 30.41444 | -126.66029 | 32077 ft | 380 kts | 255° |
| 2026-04-25 19:18 | 30.40012 | -126.71888 | 32072 ft | 379 kts | 255° |
| 2026-04-25 19:18 | 30.38574 | -126.77763 | 32074 ft | 380 kts | 255° |
| 2026-04-25 19:19 | 30.37138 | -126.83605 | 32078 ft | 379 kts | 255° |
| 2026-04-25 19:19 | 30.35694 | -126.89475 | 32074 ft | 380 kts | 255° |
| 2026-04-25 19:20 | 30.34248 | -126.95342 | 32077 ft | 379 kts | 255° |
| 2026-04-25 19:20 | 30.32801 | -127.01195 | 32076 ft | 379 kts | 255° |
| 2026-04-25 19:21 | 30.31353 | -127.07038 | 32076 ft | 379 kts | 255° |
| 2026-04-25 19:21 | 30.29176 | -127.15812 | 32074 ft | 379 kts | 255° |
| 2026-04-25 19:22 | 30.27725 | -127.21638 | 32074 ft | 379 kts | 256° |
| 2026-04-25 19:23 | 30.25545 | -127.30376 | 32075 ft | 379 kts | 256° |
| 2026-04-25 19:23 | 30.23356 | -127.39124 | 32073 ft | 379 kts | 256° |
| 2026-04-25 19:24 | 30.21888 | -127.44970 | 32077 ft | 379 kts | 256° |
| 2026-04-25 19:25 | 30.18946 | -127.56651 | 32070 ft | 379 kts | 256° |
| 2026-04-25 19:25 | 30.17469 | -127.62499 | 32070 ft | 379 kts | 256° |
| 2026-04-25 19:26 | 30.15992 | -127.68336 | 32072 ft | 379 kts | 256° |
| 2026-04-25 19:26 | 30.14519 | -127.74145 | 32071 ft | 379 kts | 256° |
| 2026-04-25 19:27 | 30.13285 | -127.79007 | 32074 ft | 379 kts | 256° |
| 2026-04-25 19:27 | 30.11559 | -127.85783 | 32075 ft | 378 kts | 256° |
| 2026-04-25 19:28 | 30.10074 | -127.91599 | 32074 ft | 378 kts | 256° |
| 2026-04-25 19:28 | 30.08592 | -127.97401 | 32073 ft | 377 kts | 256° |
| 2026-04-25 19:29 | 30.07106 | -128.03203 | 32071 ft | 378 kts | 256° |
| 2026-04-25 19:29 | 30.05625 | -128.08975 | 32073 ft | 377 kts | 256° |
| 2026-04-25 19:30 | 30.04137 | -128.14757 | 32073 ft | 377 kts | 256° |
| 2026-04-25 19:30 | 30.02645 | -128.20548 | 32073 ft | 377 kts | 256° |
| 2026-04-25 19:31 | 30.01153 | -128.26332 | 32075 ft | 376 kts | 256° |
| 2026-04-25 19:31 | 29.99667 | -128.32074 | 32075 ft | 377 kts | 256° |
| 2026-04-25 19:32 | 29.98172 | -128.37837 | 32081 ft | 375 kts | 256° |
| 2026-04-25 19:32 | 29.97174 | -128.41676 | 32079 ft | 375 kts | 256° |
| 2026-04-25 19:33 | 29.95181 | -128.49335 | 32084 ft | 375 kts | 256° |
| 2026-04-25 19:33 | 29.93679 | -128.55098 | 32083 ft | 375 kts | 256° |
| 2026-04-25 19:34 | 29.92180 | -128.60838 | 32085 ft | 375 kts | 256° |
| 2026-04-25 19:34 | 29.90678 | -128.66576 | 32088 ft | 375 kts | 256° |
| 2026-04-25 19:35 | 29.89171 | -128.72325 | 32088 ft | 374 kts | 256° |
| 2026-04-25 19:35 | 29.87661 | -128.78069 | 32089 ft | 375 kts | 256° |
| 2026-04-25 19:36 | 29.86158 | -128.83772 | 32091 ft | 376 kts | 256° |
| 2026-04-25 19:36 | 29.84641 | -128.89522 | 32093 ft | 375 kts | 256° |
| 2026-04-25 19:37 | 29.83124 | -128.95264 | 32092 ft | 375 kts | 257° |
| 2026-04-25 19:37 | 29.81611 | -129.00969 | 32094 ft | 376 kts | 257° |
| 2026-04-25 19:38 | 29.80083 | -129.06731 | 32095 ft | 375 kts | 257° |
| 2026-04-25 19:38 | 29.78558 | -129.12470 | 32093 ft | 375 kts | 257° |
| 2026-04-25 19:39 | 29.77034 | -129.18188 | 32096 ft | 376 kts | 256° |
| 2026-04-25 19:39 | 29.75514 | -129.23883 | 32100 ft | 375 kts | 257° |
| 2026-04-25 19:40 | 29.73975 | -129.29628 | 32098 ft | 375 kts | 257° |
| 2026-04-25 19:40 | 29.72449 | -129.35326 | 32100 ft | 374 kts | 257° |
| 2026-04-25 19:41 | 29.70911 | -129.41060 | 32100 ft | 374 kts | 257° |
| 2026-04-25 19:41 | 29.69894 | -129.44840 | 32103 ft | 374 kts | 257° |
| 2026-04-25 19:42 | 29.67848 | -129.52435 | 32103 ft | 374 kts | 257° |
| 2026-04-25 19:42 | 29.66315 | -129.58121 | 32109 ft | 373 kts | 257° |
| 2026-04-25 19:43 | 29.64768 | -129.63832 | 32108 ft | 374 kts | 257° |
| 2026-04-25 19:43 | 29.63227 | -129.69519 | 32103 ft | 375 kts | 256° |
| 2026-04-25 19:44 | 29.61674 | -129.75236 | 32104 ft | 375 kts | 256° |
| 2026-04-25 19:44 | 29.60128 | -129.80924 | 32104 ft | 374 kts | 256° |
| 2026-04-25 19:45 | 29.58577 | -129.86616 | 32110 ft | 375 kts | 257° |
| 2026-04-25 19:45 | 29.57023 | -129.92302 | 32114 ft | 374 kts | 257° |
| 2026-04-25 19:46 | 29.55461 | -129.98012 | 32112 ft | 375 kts | 257° |
| 2026-04-25 19:46 | 29.53898 | -130.03717 | 32111 ft | 375 kts | 257° |
| 2026-04-25 19:47 | 29.52333 | -130.09412 | 32113 ft | 375 kts | 257° |
| 2026-04-25 19:47 | 29.50770 | -130.15102 | 32113 ft | 375 kts | 257° |
| 2026-04-25 19:48 | 29.49201 | -130.20789 | 32112 ft | 375 kts | 257° |
| 2026-04-25 19:48 | 29.47638 | -130.26457 | 32113 ft | 375 kts | 257° |
| 2026-04-25 19:49 | 29.46582 | -130.30269 | 32114 ft | 375 kts | 257° |
| 2026-04-25 19:49 | 29.44486 | -130.37833 | 32115 ft | 375 kts | 257° |
| 2026-04-25 19:50 | 29.42115 | -130.46370 | 32113 ft | 376 kts | 257° |
| 2026-04-25 19:51 | 29.40539 | -130.52035 | 32113 ft | 376 kts | 257° |
| 2026-04-25 19:51 | 29.38943 | -130.57756 | 32110 ft | 376 kts | 256° |
| 2026-04-25 19:52 | 29.37365 | -130.63411 | 32111 ft | 375 kts | 257° |
| 2026-04-25 19:52 | 29.35765 | -130.69116 | 32110 ft | 376 kts | 256° |
| 2026-04-25 19:53 | 29.34174 | -130.74791 | 32112 ft | 376 kts | 257° |
| 2026-04-25 19:53 | 29.32568 | -130.80510 | 32107 ft | 377 kts | 257° |
| 2026-04-25 19:54 | 29.30969 | -130.86192 | 32113 ft | 377 kts | 256° |
| 2026-04-25 19:54 | 29.29361 | -130.91902 | 32108 ft | 376 kts | 256° |
| 2026-04-25 19:55 | 29.27750 | -130.97598 | 32110 ft | 377 kts | 256° |
| 2026-04-25 19:55 | 29.26139 | -131.03296 | 32114 ft | 377 kts | 256° |
| 2026-04-25 19:56 | 29.24531 | -131.08963 | 32108 ft | 377 kts | 256° |
| 2026-04-25 19:56 | 29.22902 | -131.14684 | 32115 ft | 377 kts | 256° |
| 2026-04-25 19:57 | 29.21284 | -131.20363 | 32110 ft | 378 kts | 256° |
| 2026-04-25 19:57 | 29.19647 | -131.26109 | 32105 ft | 379 kts | 256° |
| 2026-04-25 19:58 | 29.18025 | -131.31786 | 32113 ft | 378 kts | 257° |
| 2026-04-25 19:58 | 29.16385 | -131.37518 | 32110 ft | 378 kts | 256° |
| 2026-04-25 19:59 | 29.14755 | -131.43204 | 32113 ft | 379 kts | 256° |
| 2026-04-25 19:59 | 29.13110 | -131.48930 | 32109 ft | 378 kts | 256° |
| 2026-04-25 20:00 | 29.11470 | -131.54622 | 32108 ft | 380 kts | 256° |
| 2026-04-25 20:00 | 29.09826 | -131.60327 | 32117 ft | 380 kts | 256° |
| 2026-04-25 20:01 | 29.07342 | -131.68926 | 32109 ft | 380 kts | 256° |
| 2026-04-25 20:01 | 29.05685 | -131.74648 | 32114 ft | 380 kts | 256° |
| 2026-04-25 20:02 | 29.04022 | -131.80383 | 32118 ft | 381 kts | 256° |
| 2026-04-25 20:02 | 29.02354 | -131.86121 | 32108 ft | 381 kts | 256° |
| 2026-04-25 20:03 | 29.00684 | -131.91861 | 32114 ft | 381 kts | 256° |
| 2026-04-25 20:03 | 28.99015 | -131.97580 | 32111 ft | 381 kts | 256° |
| 2026-04-25 20:04 | 28.97339 | -132.03319 | 32112 ft | 381 kts | 256° |
| 2026-04-25 20:04 | 28.95668 | -132.09032 | 32111 ft | 381 kts | 256° |
| 2026-04-25 20:05 | 28.93988 | -132.14763 | 32114 ft | 381 kts | 256° |
| 2026-04-25 20:05 | 28.92309 | -132.20476 | 32113 ft | 381 kts | 255° |
| 2026-04-25 20:06 | 28.90631 | -132.26180 | 32116 ft | 382 kts | 256° |
| 2026-04-25 20:06 | 28.88933 | -132.31941 | 32117 ft | 383 kts | 256° |
| 2026-04-25 20:07 | 28.87242 | -132.37663 | 32121 ft | 384 kts | 256° |
| 2026-04-25 20:07 | 28.85534 | -132.43439 | 32122 ft | 384 kts | 256° |
| 2026-04-25 20:08 | 28.83831 | -132.49191 | 32121 ft | 384 kts | 256° |
| 2026-04-25 20:08 | 28.82128 | -132.54929 | 32124 ft | 385 kts | 256° |
| 2026-04-25 20:09 | 28.80411 | -132.60701 | 32124 ft | 386 kts | 255° |
| 2026-04-25 20:09 | 28.78690 | -132.66476 | 32129 ft | 386 kts | 255° |
| 2026-04-25 20:10 | 28.76968 | -132.72246 | 32125 ft | 386 kts | 255° |
| 2026-04-25 20:10 | 28.75238 | -132.78036 | 32127 ft | 387 kts | 255° |
| 2026-04-25 20:11 | 28.73507 | -132.83815 | 32129 ft | 387 kts | 255° |
| 2026-04-25 20:11 | 28.71772 | -132.89601 | 32129 ft | 387 kts | 255° |
| 2026-04-25 20:12 | 28.70033 | -132.95387 | 32131 ft | 388 kts | 255° |
| 2026-04-25 20:12 | 28.68867 | -132.99260 | 32132 ft | 388 kts | 255° |
| 2026-04-25 20:13 | 28.66537 | -133.06993 | 32135 ft | 388 kts | 255° |
| 2026-04-25 20:13 | 28.64794 | -133.12762 | 32134 ft | 389 kts | 255° |
| 2026-04-25 20:14 | 28.63029 | -133.18597 | 32135 ft | 389 kts | 255° |
| 2026-04-25 20:14 | 28.61275 | -133.24381 | 32135 ft | 390 kts | 255° |
| 2026-04-25 20:15 | 28.59507 | -133.30202 | 32135 ft | 390 kts | 255° |
| 2026-04-25 20:15 | 28.57726 | -133.36055 | 32134 ft | 390 kts | 255° |
| 2026-04-25 20:16 | 28.55959 | -133.41856 | 32135 ft | 390 kts | 255° |
| 2026-04-25 20:16 | 28.54187 | -133.47665 | 32135 ft | 390 kts | 255° |
| 2026-04-25 20:17 | 28.52404 | -133.53494 | 32135 ft | 391 kts | 255° |
| 2026-04-25 20:17 | 28.50616 | -133.59328 | 32134 ft | 392 kts | 255° |
| 2026-04-25 20:18 | 28.48833 | -133.65138 | 32135 ft | 393 kts | 255° |
| 2026-04-25 20:18 | 28.47038 | -133.70979 | 32134 ft | 392 kts | 255° |
| 2026-04-25 20:19 | 28.45241 | -133.76819 | 32134 ft | 392 kts | 254° |
| 2026-04-25 20:19 | 28.43438 | -133.82667 | 32133 ft | 392 kts | 254° |
| 2026-04-25 20:20 | 28.41637 | -133.88489 | 32134 ft | 392 kts | 255° |
| 2026-04-25 20:20 | 28.39837 | -133.94310 | 32133 ft | 393 kts | 254° |
| 2026-04-25 20:21 | 28.38018 | -134.00185 | 32134 ft | 393 kts | 255° |
| 2026-04-25 20:21 | 28.36204 | -134.06027 | 32135 ft | 394 kts | 255° |
| 2026-04-25 20:22 | 28.34993 | -134.09927 | 32134 ft | 394 kts | 255° |
| 2026-04-25 20:22 | 28.32562 | -134.17732 | 32137 ft | 394 kts | 255° |
| 2026-04-25 20:23 | 28.30736 | -134.23584 | 32134 ft | 395 kts | 254° |
| 2026-04-25 20:23 | 28.28911 | -134.29419 | 32137 ft | 395 kts | 254° |
| 2026-04-25 20:24 | 28.27064 | -134.35312 | 32139 ft | 395 kts | 254° |
| 2026-04-25 20:24 | 28.25227 | -134.41170 | 32140 ft | 396 kts | 254° |
| 2026-04-25 20:25 | 28.23378 | -134.47055 | 32140 ft | 397 kts | 254° |
| 2026-04-25 20:25 | 28.21535 | -134.52908 | 32145 ft | 397 kts | 254° |
| 2026-04-25 20:26 | 28.19675 | -134.58809 | 32144 ft | 397 kts | 254° |
| 2026-04-25 20:26 | 28.17820 | -134.64677 | 32142 ft | 397 kts | 254° |
| 2026-04-25 20:27 | 28.15950 | -134.70579 | 32148 ft | 398 kts | 254° |
| 2026-04-25 20:27 | 28.14097 | -134.76431 | 32148 ft | 399 kts | 254° |
| 2026-04-25 20:28 | 28.12215 | -134.82358 | 32148 ft | 399 kts | 254° |